PWSweather.com
Personal Weather Stations
Station Observations
KCOGRAND2
Redlands, Southcamp Road & Dakota Circle, Grand Junction, CO 81507

Redlands, Southcamp Road & Dakota CircleGrand Junction, CO 81507

Lat: 39.055, Lon: -108.637

Elevation: 4870

Station Type: RadioShack WX200

High Low Average
Temperature 73.2°F22.9°F 52.0°F11.1°F 63.5°F17.5°F
Dew Point 16.3°F-8.7°F 3.9°F-15.6°F 9.4°F-12.6°F
Winds 15.0 mph E24.1 mph E Calm Calm 5.9 mph 9.5 mph
Wind Gusts 33.8 mph54.4 mph -- 10.7 mph17.2 mph
Humidity 23% 11% 16%
Pressure 25.01 in846.90 in 24.80 in839.80 in -
Precipitation 0.00 in0.00 in - -
Hour Temp Dew Point Humidity Winds Wind Gusts Pressure Precip Precip Rate Daily Precip Total
12:03 AM 60.3°F15.7°C -5537.2°C - 2.0 mph NNE3.2 kmh NNE 3.6 mph5.8 kmh 25.01 in846.9 mb 0.00 in0.0 mm 0.00 in0.0 mm 0.00 in0.0 mm
12:08 AM 59.7°F15.4°C -5537.2°C - Calm Calm -- 25.01 in846.9 mb 0.00 in0.0 mm 0.00 in0.0 mm 0.00 in0.0 mm
12:13 AM 59.4°F15.2°C -5537.2°C - 1.0 mph NNE1.6 kmh NNE 4.5 mph7.2 kmh 25.01 in846.9 mb 0.00 in0.0 mm 0.00 in0.0 mm 0.00 in0.0 mm
12:18 AM 59.4°F15.2°C -5537.2°C - 1.0 mph NNE1.6 kmh NNE 3.6 mph5.8 kmh 25.01 in846.9 mb 0.00 in0.0 mm 0.00 in0.0 mm 0.00 in0.0 mm
12:23 AM 59.2°F15.1°C -5537.2°C - Calm Calm 2.7 mph4.3 kmh 25.01 in846.9 mb 0.00 in0.0 mm 0.00 in0.0 mm 0.00 in0.0 mm
12:28 AM 58.6°F14.8°C -5537.2°C - Calm Calm 3.1 mph5.0 kmh 25.01 in846.9 mb 0.00 in0.0 mm 0.00 in0.0 mm 0.00 in0.0 mm
12:33 AM 57.6°F14.2°C -5537.2°C - Calm Calm -- 25.01 in846.9 mb 0.00 in0.0 mm 0.00 in0.0 mm 0.00 in0.0 mm
12:38 AM 57.6°F14.2°C -5537.2°C - Calm Calm 3.6 mph5.8 kmh 25.01 in846.9 mb 0.00 in0.0 mm 0.00 in0.0 mm 0.00 in0.0 mm
12:43 AM 57.2°F14.0°C -5537.2°C - 1.0 mph NNE1.6 kmh NNE 4.5 mph7.2 kmh 25.01 in846.9 mb 0.00 in0.0 mm 0.00 in0.0 mm 0.00 in0.0 mm
12:48 AM 56.8°F13.8°C -5537.2°C - 2.0 mph NNE3.2 kmh NNE 4.9 mph7.9 kmh 25.01 in846.9 mb 0.00 in0.0 mm 0.00 in0.0 mm 0.00 in0.0 mm
12:53 AM 56.8°F13.8°C -5537.2°C - 1.0 mph NE1.6 kmh NE 2.7 mph4.3 kmh 25.01 in846.9 mb 0.00 in0.0 mm 0.00 in0.0 mm 0.00 in0.0 mm
12:58 AM 57.2°F14.0°C -5537.2°C - Calm Calm 2.7 mph4.3 kmh 25.01 in846.9 mb 0.00 in0.0 mm 0.00 in0.0 mm 0.00 in0.0 mm
01:03 AM 58.3°F14.6°C -5537.2°C - 1.0 mph NE1.6 kmh NE 4.9 mph7.9 kmh 25.01 in846.9 mb 0.00 in0.0 mm 0.00 in0.0 mm 0.00 in0.0 mm
01:08 AM 59.5°F15.3°C -5537.2°C - 3.0 mph NNE4.8 kmh NNE 4.9 mph7.9 kmh 25.01 in846.9 mb 0.00 in0.0 mm 0.00 in0.0 mm 0.00 in0.0 mm
01:13 AM 59.5°F15.3°C -5537.2°C - 2.0 mph N3.2 kmh N 4.0 mph6.4 kmh 25.01 in846.9 mb 0.00 in0.0 mm 0.00 in0.0 mm 0.00 in0.0 mm
01:18 AM 59.2°F15.1°C -5537.2°C - 1.0 mph NW1.6 kmh NW 3.6 mph5.8 kmh 25.01 in846.9 mb 0.00 in0.0 mm 0.00 in0.0 mm 0.00 in0.0 mm
01:23 AM 58.3°F14.6°C -5537.2°C - Calm Calm 3.6 mph5.8 kmh 25.01 in846.9 mb 0.00 in0.0 mm 0.00 in0.0 mm 0.00 in0.0 mm
01:28 AM 57.9°F14.4°C -5537.2°C - 1.0 mph NW1.6 kmh NW 4.0 mph6.4 kmh 25.01 in846.9 mb 0.00 in0.0 mm 0.00 in0.0 mm 0.00 in0.0 mm
01:33 AM 57.4°F14.1°C -5537.2°C - 2.0 mph NW3.2 kmh NW 4.9 mph7.9 kmh 24.98 in845.9 mb 0.00 in0.0 mm 0.00 in0.0 mm 0.00 in0.0 mm
01:38 AM 57.6°F14.2°C -5537.2°C - 2.0 mph NW3.2 kmh NW 3.6 mph5.8 kmh 24.98 in845.9 mb 0.00 in0.0 mm 0.00 in0.0 mm 0.00 in0.0 mm
01:43 AM 57.6°F14.2°C -5537.2°C - 2.0 mph NW3.2 kmh NW 4.0 mph6.4 kmh 24.98 in845.9 mb 0.00 in0.0 mm 0.00 in0.0 mm 0.00 in0.0 mm
01:48 AM 57.4°F14.1°C -5537.2°C - 3.0 mph NW4.8 kmh NW 4.9 mph7.9 kmh 25.01 in846.9 mb 0.00 in0.0 mm 0.00 in0.0 mm 0.00 in0.0 mm
01:53 AM 58.5°F14.7°C -5537.2°C - 4.0 mph WNW6.4 kmh WNW 6.9 mph11.1 kmh 25.01 in846.9 mb 0.00 in0.0 mm 0.00 in0.0 mm 0.00 in0.0 mm
01:58 AM 57.7°F14.3°C -5537.2°C - 4.0 mph WSW6.4 kmh WSW 6.7 mph10.8 kmh 25.01 in846.9 mb 0.00 in0.0 mm 0.00 in0.0 mm 0.00 in0.0 mm
02:03 AM 57.2°F14.0°C -5537.2°C - 3.0 mph SE4.8 kmh SE 5.8 mph9.3 kmh 25.01 in846.9 mb 0.00 in0.0 mm 0.00 in0.0 mm 0.00 in0.0 mm
02:08 AM 56.7°F13.7°C -5537.2°C - 2.0 mph E3.2 kmh E 4.5 mph7.2 kmh 25.01 in846.9 mb 0.00 in0.0 mm 0.00 in0.0 mm 0.00 in0.0 mm
02:13 AM 57.2°F14.0°C -5537.2°C - 3.0 mph E4.8 kmh E 5.8 mph9.3 kmh 25.01 in846.9 mb 0.00 in0.0 mm 0.00 in0.0 mm 0.00 in0.0 mm
02:18 AM 57.2°F14.0°C -5537.2°C - 2.0 mph ESE3.2 kmh ESE 4.0 mph6.4 kmh 24.98 in845.9 mb 0.00 in0.0 mm 0.00 in0.0 mm 0.00 in0.0 mm
02:23 AM 57.2°F14.0°C -5537.2°C - 2.0 mph ESE3.2 kmh ESE 5.8 mph9.3 kmh 24.98 in845.9 mb 0.00 in0.0 mm 0.00 in0.0 mm 0.00 in0.0 mm
02:28 AM 56.7°F13.7°C -5537.2°C - 2.0 mph SE3.2 kmh SE 5.8 mph9.3 kmh 24.98 in845.9 mb 0.00 in0.0 mm 0.00 in0.0 mm 0.00 in0.0 mm
02:33 AM 56.7°F13.7°C -5537.2°C - 2.0 mph SE3.2 kmh SE 4.9 mph7.9 kmh 24.98 in845.9 mb 0.00 in0.0 mm 0.00 in0.0 mm 0.00 in0.0 mm
02:38 AM 57.2°F14.0°C -5537.2°C - 2.0 mph SE3.2 kmh SE 4.0 mph6.4 kmh 24.98 in845.9 mb 0.00 in0.0 mm 0.00 in0.0 mm 0.00 in0.0 mm
02:43 AM 57.4°F14.1°C -5537.2°C - Calm Calm 2.7 mph4.3 kmh 24.98 in845.9 mb 0.00 in0.0 mm 0.00 in0.0 mm 0.00 in0.0 mm
02:48 AM 57.0°F13.9°C -5537.2°C - Calm Calm 4.5 mph7.2 kmh 24.98 in845.9 mb 0.00 in0.0 mm 0.00 in0.0 mm 0.00 in0.0 mm
02:53 AM 56.3°F13.5°C -5537.2°C - Calm Calm 3.6 mph5.8 kmh 24.98 in845.9 mb 0.00 in0.0 mm 0.00 in0.0 mm 0.00 in0.0 mm
02:58 AM 56.1°F13.4°C -5537.2°C - Calm Calm 3.1 mph5.0 kmh 24.98 in845.9 mb 0.00 in0.0 mm 0.00 in0.0 mm 0.00 in0.0 mm
03:03 AM 56.3°F13.5°C -5537.2°C - 1.0 mph SE1.6 kmh SE 4.5 mph7.2 kmh 24.98 in845.9 mb 0.00 in0.0 mm 0.00 in0.0 mm 0.00 in0.0 mm
03:08 AM 55.8°F13.2°C -5537.2°C - 2.0 mph SE3.2 kmh SE 4.0 mph6.4 kmh 24.98 in845.9 mb 0.00 in0.0 mm 0.00 in0.0 mm 0.00 in0.0 mm
03:13 AM 59.2°F15.1°C -5537.2°C - 3.0 mph ESE4.8 kmh ESE 9.2 mph14.8 kmh 24.98 in845.9 mb 0.00 in0.0 mm 0.00 in0.0 mm 0.00 in0.0 mm
03:18 AM 60.8°F16.0°C -5537.2°C - 5.0 mph N8.0 kmh N 8.3 mph13.4 kmh 24.98 in845.9 mb 0.00 in0.0 mm 0.00 in0.0 mm 0.00 in0.0 mm
03:23 AM 61.7°F16.5°C -5537.2°C - 5.0 mph N8.0 kmh N 9.2 mph14.8 kmh 24.98 in845.9 mb 0.00 in0.0 mm 0.00 in0.0 mm 0.00 in0.0 mm
03:28 AM 60.4°F15.8°C -5537.2°C - 4.0 mph NE6.4 kmh NE 5.4 mph8.7 kmh 24.98 in845.9 mb 0.00 in0.0 mm 0.00 in0.0 mm 0.00 in0.0 mm
03:33 AM 58.8°F14.9°C -5537.2°C - 3.0 mph ESE4.8 kmh ESE 4.9 mph7.9 kmh 24.98 in845.9 mb 0.00 in0.0 mm 0.00 in0.0 mm 0.00 in0.0 mm
03:38 AM 57.4°F14.1°C -5537.2°C - 4.0 mph SSE6.4 kmh SSE 7.8 mph12.6 kmh 24.98 in845.9 mb 0.00 in0.0 mm 0.00 in0.0 mm 0.00 in0.0 mm
03:43 AM 57.7°F14.3°C -5537.2°C - 4.0 mph WSW6.4 kmh WSW 8.3 mph13.4 kmh 24.98 in845.9 mb 0.00 in0.0 mm 0.00 in0.0 mm 0.00 in0.0 mm
03:48 AM 57.9°F14.4°C -5537.2°C - 4.0 mph W6.4 kmh W 7.8 mph12.6 kmh 24.98 in845.9 mb 0.00 in0.0 mm 0.00 in0.0 mm 0.00 in0.0 mm
03:53 AM 56.7°F13.7°C -5537.2°C - 5.0 mph WSW8.0 kmh WSW 9.2 mph14.8 kmh 24.98 in845.9 mb 0.00 in0.0 mm 0.00 in0.0 mm 0.00 in0.0 mm
03:58 AM 57.2°F14.0°C -5537.2°C - 6.0 mph SSW9.7 kmh SSW 8.3 mph13.4 kmh 24.98 in845.9 mb 0.00 in0.0 mm 0.00 in0.0 mm 0.00 in0.0 mm
04:03 AM 55.8°F13.2°C -5537.2°C - 6.0 mph S9.7 kmh S 8.7 mph14.0 kmh 24.98 in845.9 mb 0.00 in0.0 mm 0.00 in0.0 mm 0.00 in0.0 mm
04:08 AM 55.6°F13.1°C -5537.2°C - 6.0 mph S9.7 kmh S 7.8 mph12.6 kmh 24.98 in845.9 mb 0.00 in0.0 mm 0.00 in0.0 mm 0.00 in0.0 mm
04:13 AM 54.5°F12.5°C -5537.2°C - 5.0 mph S8.0 kmh S 8.3 mph13.4 kmh 24.98 in845.9 mb 0.00 in0.0 mm 0.00 in0.0 mm 0.00 in0.0 mm
04:18 AM 54.1°F12.3°C 4.5°F-15.3°C 13% 5.0 mph SSE8.0 kmh SSE 5.8 mph9.3 kmh 24.98 in845.9 mb 0.00 in0.0 mm 0.00 in0.0 mm 0.00 in0.0 mm
04:23 AM 53.8°F12.1°C 4.1°F-15.5°C 13% 4.0 mph SSE6.4 kmh SSE 6.3 mph10.1 kmh 24.98 in845.9 mb 0.00 in0.0 mm 0.00 in0.0 mm 0.00 in0.0 mm
04:28 AM 54.1°F12.3°C 4.5°F-15.3°C 13% 4.0 mph SE6.4 kmh SE 6.7 mph10.8 kmh 24.98 in845.9 mb 0.00 in0.0 mm 0.00 in0.0 mm 0.00 in0.0 mm
04:33 AM 53.4°F11.9°C 3.9°F-15.6°C 13% 5.0 mph SE8.0 kmh SE 8.7 mph14.0 kmh 24.95 in844.9 mb 0.00 in0.0 mm 0.00 in0.0 mm 0.00 in0.0 mm
04:38 AM 53.6°F12.0°C 7.2°F-13.8°C 15% 5.0 mph SSE8.0 kmh SSE 6.3 mph10.1 kmh 24.95 in844.9 mb 0.00 in0.0 mm 0.00 in0.0 mm 0.00 in0.0 mm
04:43 AM 53.6°F12.0°C 7.2°F-13.8°C 15% 4.0 mph SE6.4 kmh SE 5.4 mph8.7 kmh 24.95 in844.9 mb 0.00 in0.0 mm 0.00 in0.0 mm 0.00 in0.0 mm
04:48 AM 52.9°F11.6°C 6.4°F-14.2°C 15% 4.0 mph SSE6.4 kmh SSE 7.4 mph11.9 kmh 24.95 in844.9 mb 0.00 in0.0 mm 0.00 in0.0 mm 0.00 in0.0 mm
04:53 AM 53.1°F11.7°C 10.8°F-11.8°C 18% 5.0 mph SSE8.0 kmh SSE 5.8 mph9.3 kmh 24.95 in844.9 mb 0.00 in0.0 mm 0.00 in0.0 mm 0.00 in0.0 mm
04:58 AM 52.5°F11.4°C 10.2°F-12.1°C 18% 2.0 mph SE3.2 kmh SE 4.5 mph7.2 kmh 24.95 in844.9 mb 0.00 in0.0 mm 0.00 in0.0 mm 0.00 in0.0 mm
05:03 AM 52.3°F11.3°C 10.0°F-12.2°C 18% 2.0 mph SSE3.2 kmh SSE 4.5 mph7.2 kmh 24.95 in844.9 mb 0.00 in0.0 mm 0.00 in0.0 mm 0.00 in0.0 mm
05:08 AM 52.2°F11.2°C 13.5°F-10.3°C 21% 2.0 mph SSE3.2 kmh SSE 4.5 mph7.2 kmh 24.95 in844.9 mb 0.00 in0.0 mm 0.00 in0.0 mm 0.00 in0.0 mm
05:14 AM 52.3°F11.3°C 13.6°F-10.2°C 21% 3.0 mph SSE4.8 kmh SSE 4.5 mph7.2 kmh 24.95 in844.9 mb 0.00 in0.0 mm 0.00 in0.0 mm 0.00 in0.0 mm
05:19 AM 52.2°F11.2°C 13.5°F-10.3°C 21% 3.0 mph SSE4.8 kmh SSE 3.6 mph5.8 kmh 24.98 in845.9 mb 0.00 in0.0 mm 0.00 in0.0 mm 0.00 in0.0 mm
05:24 AM 52.0°F11.1°C 13.3°F-10.4°C 21% 2.0 mph SE3.2 kmh SE 4.9 mph7.9 kmh 24.98 in845.9 mb 0.00 in0.0 mm 0.00 in0.0 mm 0.00 in0.0 mm
05:29 AM 52.0°F11.1°C 13.3°F-10.4°C 21% 2.0 mph SE3.2 kmh SE 4.5 mph7.2 kmh 24.98 in845.9 mb 0.00 in0.0 mm 0.00 in0.0 mm 0.00 in0.0 mm
05:34 AM 52.3°F11.3°C 15.6°F-9.1°C 23% 1.0 mph ESE1.6 kmh ESE 4.0 mph6.4 kmh 24.95 in844.9 mb 0.00 in0.0 mm 0.00 in0.0 mm 0.00 in0.0 mm
05:39 AM 52.3°F11.3°C 13.6°F-10.2°C 21% 1.0 mph ESE1.6 kmh ESE 3.6 mph5.8 kmh 24.95 in844.9 mb 0.00 in0.0 mm 0.00 in0.0 mm 0.00 in0.0 mm
05:44 AM 52.7°F11.5°C 16.0°F-8.9°C 23% 1.0 mph ESE1.6 kmh ESE 4.5 mph7.2 kmh 24.95 in844.9 mb 0.00 in0.0 mm 0.00 in0.0 mm 0.00 in0.0 mm
05:49 AM 52.9°F11.6°C 16.2°F-8.8°C 23% 2.0 mph ESE3.2 kmh ESE 4.9 mph7.9 kmh 24.98 in845.9 mb 0.00 in0.0 mm 0.00 in0.0 mm 0.00 in0.0 mm
05:54 AM 53.4°F11.9°C 13.5°F-10.3°C 20% 3.0 mph SE4.8 kmh SE 4.9 mph7.9 kmh 24.98 in845.9 mb 0.00 in0.0 mm 0.00 in0.0 mm 0.00 in0.0 mm
05:59 AM 54.0°F12.2°C 13.8°F-10.1°C 20% 3.0 mph SSW4.8 kmh SSW 4.9 mph7.9 kmh 24.98 in845.9 mb 0.00 in0.0 mm 0.00 in0.0 mm 0.00 in0.0 mm
06:04 AM 52.7°F11.5°C 12.7°F-10.7°C 20% 2.0 mph WSW3.2 kmh WSW 4.5 mph7.2 kmh 24.95 in844.9 mb 0.00 in0.0 mm 0.00 in0.0 mm 0.00 in0.0 mm
06:09 AM 52.2°F11.2°C 13.5°F-10.3°C 21% 2.0 mph WSW3.2 kmh WSW 6.3 mph10.1 kmh 24.95 in844.9 mb 0.00 in0.0 mm 0.00 in0.0 mm 0.00 in0.0 mm
06:14 AM 52.3°F11.3°C 15.6°F-9.1°C 23% 2.0 mph WSW3.2 kmh WSW 5.8 mph9.3 kmh 24.95 in844.9 mb 0.00 in0.0 mm 0.00 in0.0 mm 0.00 in0.0 mm
06:19 AM 53.1°F11.7°C 13.1°F-10.5°C 20% 2.0 mph SW3.2 kmh SW 5.8 mph9.3 kmh 24.95 in844.9 mb 0.00 in0.0 mm 0.00 in0.0 mm 0.00 in0.0 mm
06:24 AM 53.2°F11.8°C 16.3°F-8.7°C 23% 3.0 mph SE4.8 kmh SE 5.8 mph9.3 kmh 24.95 in844.9 mb 0.00 in0.0 mm 0.00 in0.0 mm 0.00 in0.0 mm
06:29 AM 54.1°F12.3°C 11.7°F-11.3°C 18% 3.0 mph ESE4.8 kmh ESE 6.3 mph10.1 kmh 24.95 in844.9 mb 0.00 in0.0 mm 0.00 in0.0 mm 0.00 in0.0 mm
06:34 AM 58.5°F14.7°C 6.1°F-14.4°C 12% 4.0 mph E6.4 kmh E 11.0 mph17.7 kmh 24.95 in844.9 mb 0.00 in0.0 mm 0.00 in0.0 mm 0.00 in0.0 mm
06:39 AM 60.3°F15.7°C -5537.2°C - 5.0 mph E8.0 kmh E 9.6 mph15.4 kmh 24.95 in844.9 mb 0.00 in0.0 mm 0.00 in0.0 mm 0.00 in0.0 mm
06:44 AM 63.1°F17.3°C -5537.2°C - 6.0 mph E9.7 kmh E 12.5 mph20.1 kmh 24.95 in844.9 mb 0.00 in0.0 mm 0.00 in0.0 mm 0.00 in0.0 mm
06:49 AM 64.0°F17.8°C -5537.2°C - 8.0 mph ENE12.9 kmh ENE 13.0 mph20.9 kmh 24.95 in844.9 mb 0.00 in0.0 mm 0.00 in0.0 mm 0.00 in0.0 mm
06:54 AM 64.2°F17.9°C -5537.2°C - 9.0 mph ENE14.5 kmh ENE 15.4 mph24.8 kmh 24.95 in844.9 mb 0.00 in0.0 mm 0.00 in0.0 mm 0.00 in0.0 mm
06:59 AM 63.9°F17.7°C -5537.2°C - 9.0 mph ENE14.5 kmh ENE 13.0 mph20.9 kmh 24.95 in844.9 mb 0.00 in0.0 mm 0.00 in0.0 mm 0.00 in0.0 mm
07:04 AM 63.7°F17.6°C -5537.2°C - 9.0 mph ENE14.5 kmh ENE 15.9 mph25.6 kmh 24.95 in844.9 mb 0.00 in0.0 mm 0.00 in0.0 mm 0.00 in0.0 mm
07:09 AM 64.0°F17.8°C -5537.2°C - 12.0 mph ENE19.3 kmh ENE 20.1 mph32.3 kmh 24.95 in844.9 mb 0.00 in0.0 mm 0.00 in0.0 mm 0.00 in0.0 mm
07:14 AM 63.9°F17.7°C -5537.2°C - 12.0 mph ENE19.3 kmh ENE 15.4 mph24.8 kmh 24.95 in844.9 mb 0.00 in0.0 mm 0.00 in0.0 mm 0.00 in0.0 mm
07:19 AM 63.3°F17.4°C -5537.2°C - 8.0 mph ENE12.9 kmh ENE 11.0 mph17.7 kmh 24.98 in845.9 mb 0.00 in0.0 mm 0.00 in0.0 mm 0.00 in0.0 mm
07:24 AM 63.7°F17.6°C -5537.2°C - 6.0 mph NE9.7 kmh NE 10.1 mph16.3 kmh 24.98 in845.9 mb 0.00 in0.0 mm 0.00 in0.0 mm 0.00 in0.0 mm
07:29 AM 62.8°F17.1°C -5537.2°C - 6.0 mph NNE9.7 kmh NNE 11.2 mph18.0 kmh 24.98 in845.9 mb 0.00 in0.0 mm 0.00 in0.0 mm 0.00 in0.0 mm
07:34 AM 63.0°F17.2°C -5537.2°C - 8.0 mph N12.9 kmh N 15.9 mph25.6 kmh 24.98 in845.9 mb 0.00 in0.0 mm 0.00 in0.0 mm 0.00 in0.0 mm
07:39 AM 62.6°F17.0°C -5537.2°C - 9.0 mph N14.5 kmh N 13.9 mph22.4 kmh 24.98 in845.9 mb 0.00 in0.0 mm 0.00 in0.0 mm 0.00 in0.0 mm
07:44 AM 61.9°F16.6°C -5537.2°C - 6.0 mph N9.7 kmh N 7.4 mph11.9 kmh 24.98 in845.9 mb 0.00 in0.0 mm 0.00 in0.0 mm 0.00 in0.0 mm
07:49 AM 61.7°F16.5°C -5537.2°C - 4.0 mph NE6.4 kmh NE 6.7 mph10.8 kmh 24.98 in845.9 mb 0.00 in0.0 mm 0.00 in0.0 mm 0.00 in0.0 mm
07:54 AM 61.7°F16.5°C -5537.2°C - 3.0 mph ENE4.8 kmh ENE 5.8 mph9.3 kmh 24.98 in845.9 mb 0.00 in0.0 mm 0.00 in0.0 mm 0.00 in0.0 mm
07:59 AM 61.3°F16.3°C -5537.2°C - 2.0 mph E3.2 kmh E 3.6 mph5.8 kmh 24.98 in845.9 mb 0.00 in0.0 mm 0.00 in0.0 mm 0.00 in0.0 mm
08:04 AM 61.5°F16.4°C -5537.2°C - 2.0 mph ESE3.2 kmh ESE 7.8 mph12.6 kmh 24.98 in845.9 mb 0.00 in0.0 mm 0.00 in0.0 mm 0.00 in0.0 mm
08:09 AM 59.4°F15.2°C -5537.2°C - 3.0 mph SE4.8 kmh SE 8.7 mph14.0 kmh 24.98 in845.9 mb 0.00 in0.0 mm 0.00 in0.0 mm 0.00 in0.0 mm
08:14 AM 57.9°F14.4°C -5537.2°C - 5.0 mph S8.0 kmh S 6.7 mph10.8 kmh 24.98 in845.9 mb 0.00 in0.0 mm 0.00 in0.0 mm 0.00 in0.0 mm
08:19 AM 57.9°F14.4°C -5537.2°C - 2.0 mph S3.2 kmh S 3.6 mph5.8 kmh 24.98 in845.9 mb 0.00 in0.0 mm 0.00 in0.0 mm 0.00 in0.0 mm
08:24 AM 57.7°F14.3°C -5537.2°C - 2.0 mph S3.2 kmh S 6.3 mph10.1 kmh 24.98 in845.9 mb 0.00 in0.0 mm 0.00 in0.0 mm 0.00 in0.0 mm
08:29 AM 57.7°F14.3°C -5537.2°C - 4.0 mph S6.4 kmh S 7.4 mph11.9 kmh 24.98 in845.9 mb 0.00 in0.0 mm 0.00 in0.0 mm 0.00 in0.0 mm
08:34 AM 58.3°F14.6°C -5537.2°C - 4.0 mph S6.4 kmh S 5.8 mph9.3 kmh 24.98 in845.9 mb 0.00 in0.0 mm 0.00 in0.0 mm 0.00 in0.0 mm
08:39 AM 58.5°F14.7°C -5537.2°C - 4.0 mph S6.4 kmh S 7.8 mph12.6 kmh 24.98 in845.9 mb 0.00 in0.0 mm 0.00 in0.0 mm 0.00 in0.0 mm
08:44 AM 58.3°F14.6°C -5537.2°C - 4.0 mph SSE6.4 kmh SSE 6.9 mph11.1 kmh 24.98 in845.9 mb 0.00 in0.0 mm 0.00 in0.0 mm 0.00 in0.0 mm
08:49 AM 58.5°F14.7°C 6.1°F-14.4°C 12% 4.0 mph SE6.4 kmh SE 4.0 mph6.4 kmh 24.98 in845.9 mb 0.00 in0.0 mm 0.00 in0.0 mm 0.00 in0.0 mm
08:54 AM 58.6°F14.8°C 6.3°F-14.3°C 12% 3.0 mph ESE4.8 kmh ESE 5.4 mph8.7 kmh 24.98 in845.9 mb 0.00 in0.0 mm 0.00 in0.0 mm 0.00 in0.0 mm
08:59 AM 58.8°F14.9°C 6.3°F-14.3°C 12% 4.0 mph SE6.4 kmh SE 5.8 mph9.3 kmh 24.98 in845.9 mb 0.00 in0.0 mm 0.00 in0.0 mm 0.00 in0.0 mm
09:04 AM 59.9°F15.5°C -5537.2°C - 5.0 mph S8.0 kmh S 7.4 mph11.9 kmh 24.98 in845.9 mb 0.00 in0.0 mm 0.00 in0.0 mm 0.00 in0.0 mm
09:09 AM 59.4°F15.2°C 6.8°F-14.0°C 12% 5.0 mph SSW8.0 kmh SSW 8.3 mph13.4 kmh 24.98 in845.9 mb 0.00 in0.0 mm 0.00 in0.0 mm 0.00 in0.0 mm
09:14 AM 59.4°F15.2°C 6.8°F-14.0°C 12% 5.0 mph SW8.0 kmh SW 7.8 mph12.6 kmh 24.98 in845.9 mb 0.00 in0.0 mm 0.00 in0.0 mm 0.00 in0.0 mm
09:19 AM 59.5°F15.3°C 7.0°F-13.9°C 12% 5.0 mph SW8.0 kmh SW 6.9 mph11.1 kmh 25.01 in846.9 mb 0.00 in0.0 mm 0.00 in0.0 mm 0.00 in0.0 mm
09:24 AM 60.1°F15.6°C 5.4°F-14.8°C 11% 4.0 mph SW6.4 kmh SW 6.7 mph10.8 kmh 25.01 in846.9 mb 0.00 in0.0 mm 0.00 in0.0 mm 0.00 in0.0 mm
09:29 AM 60.1°F15.6°C 5.4°F-14.8°C 11% 4.0 mph SW6.4 kmh SW 5.8 mph9.3 kmh 25.01 in846.9 mb 0.00 in0.0 mm 0.00 in0.0 mm 0.00 in0.0 mm
09:34 AM 60.3°F15.7°C -5537.2°C - 4.0 mph S6.4 kmh S 5.8 mph9.3 kmh 25.01 in846.9 mb 0.00 in0.0 mm 0.00 in0.0 mm 0.00 in0.0 mm
09:39 AM 60.3°F15.7°C 5.5°F-14.7°C 11% 2.0 mph S3.2 kmh S 4.0 mph6.4 kmh 25.01 in846.9 mb 0.00 in0.0 mm 0.00 in0.0 mm 0.00 in0.0 mm
09:44 AM 60.3°F15.7°C 5.5°F-14.7°C 11% 2.0 mph S3.2 kmh S 4.9 mph7.9 kmh 25.01 in846.9 mb 0.00 in0.0 mm 0.00 in0.0 mm 0.00 in0.0 mm
09:49 AM 60.4°F15.8°C 5.7°F-14.6°C 11% 2.0 mph S3.2 kmh S 4.0 mph6.4 kmh 25.01 in846.9 mb 0.00 in0.0 mm 0.00 in0.0 mm 0.00 in0.0 mm
09:54 AM 60.8°F16.0°C 5.9°F-14.5°C 11% 2.0 mph S3.2 kmh S 8.3 mph13.4 kmh 25.01 in846.9 mb 0.00 in0.0 mm 0.00 in0.0 mm 0.00 in0.0 mm
09:59 AM 60.8°F16.0°C 5.9°F-14.5°C 11% 4.0 mph SSE6.4 kmh SSE 8.3 mph13.4 kmh 25.01 in846.9 mb 0.00 in0.0 mm 0.00 in0.0 mm 0.00 in0.0 mm
10:04 AM 61.0°F16.1°C 6.1°F-14.4°C 11% 4.0 mph SSE6.4 kmh SSE 4.0 mph6.4 kmh 25.01 in846.9 mb 0.00 in0.0 mm 0.00 in0.0 mm 0.00 in0.0 mm
10:09 AM 61.5°F16.4°C 6.6°F-14.1°C 11% 2.0 mph SSE3.2 kmh SSE 3.6 mph5.8 kmh 25.01 in846.9 mb 0.00 in0.0 mm 0.00 in0.0 mm 0.00 in0.0 mm
10:14 AM 62.2°F16.8°C -5537.2°C - 2.0 mph SSE3.2 kmh SSE 4.9 mph7.9 kmh 25.01 in846.9 mb 0.00 in0.0 mm 0.00 in0.0 mm 0.00 in0.0 mm
10:19 AM 63.5°F17.5°C -5537.2°C - 3.0 mph S4.8 kmh S 5.4 mph8.7 kmh 25.01 in846.9 mb 0.00 in0.0 mm 0.00 in0.0 mm 0.00 in0.0 mm
10:24 AM 64.8°F18.2°C -5537.2°C - 4.0 mph SW6.4 kmh SW 12.1 mph19.5 kmh 25.01 in846.9 mb 0.00 in0.0 mm 0.00 in0.0 mm 0.00 in0.0 mm
10:29 AM 66.4°F19.1°C -5537.2°C - 6.0 mph SW9.7 kmh SW 13.0 mph20.9 kmh 25.01 in846.9 mb 0.00 in0.0 mm 0.00 in0.0 mm 0.00 in0.0 mm
10:34 AM 67.1°F19.5°C -5537.2°C - 6.0 mph WSW9.7 kmh WSW 10.5 mph16.9 kmh 25.01 in846.9 mb 0.00 in0.0 mm 0.00 in0.0 mm 0.00 in0.0 mm
10:39 AM 67.5°F19.7°C -5537.2°C - 6.0 mph W9.7 kmh W 10.5 mph16.9 kmh 25.01 in846.9 mb 0.00 in0.0 mm 0.00 in0.0 mm 0.00 in0.0 mm
10:44 AM 68.4°F20.2°C -5537.2°C - 6.0 mph WSW9.7 kmh WSW 9.2 mph14.8 kmh 25.01 in846.9 mb 0.00 in0.0 mm 0.00 in0.0 mm 0.00 in0.0 mm
10:49 AM 70.0°F21.1°C -5537.2°C - 7.0 mph ESE11.3 kmh ESE 15.9 mph25.6 kmh 25.01 in846.9 mb 0.00 in0.0 mm 0.00 in0.0 mm 0.00 in0.0 mm
10:54 AM 70.3°F21.3°C -5537.2°C - 9.0 mph E14.5 kmh E 17.2 mph27.7 kmh 25.01 in846.9 mb 0.00 in0.0 mm 0.00 in0.0 mm 0.00 in0.0 mm
10:59 AM 69.8°F21.0°C -5537.2°C - 10.0 mph ENE16.1 kmh ENE 17.2 mph27.7 kmh 25.01 in846.9 mb 0.00 in0.0 mm 0.00 in0.0 mm 0.00 in0.0 mm
11:04 AM 70.7°F21.5°C -5537.2°C - 9.0 mph ENE14.5 kmh ENE 13.4 mph21.6 kmh 24.98 in845.9 mb 0.00 in0.0 mm 0.00 in0.0 mm 0.00 in0.0 mm
11:09 AM 70.5°F21.4°C -5537.2°C - 7.0 mph ENE11.3 kmh ENE 15.2 mph24.5 kmh 24.98 in845.9 mb 0.00 in0.0 mm 0.00 in0.0 mm 0.00 in0.0 mm
11:14 AM 70.2°F21.2°C -5537.2°C - 8.0 mph NE12.9 kmh NE 14.8 mph23.8 kmh 24.98 in845.9 mb 0.00 in0.0 mm 0.00 in0.0 mm 0.00 in0.0 mm
11:19 AM 70.7°F21.5°C -5537.2°C - 8.0 mph NE12.9 kmh NE 16.8 mph27.0 kmh 24.98 in845.9 mb 0.00 in0.0 mm 0.00 in0.0 mm 0.00 in0.0 mm
11:24 AM 71.2°F21.8°C -5537.2°C - 8.0 mph NE12.9 kmh NE 13.4 mph21.6 kmh 24.98 in845.9 mb 0.00 in0.0 mm 0.00 in0.0 mm 0.00 in0.0 mm
11:29 AM 71.6°F22.0°C -5537.2°C - 8.0 mph NE12.9 kmh NE 11.6 mph18.7 kmh 24.98 in845.9 mb 0.00 in0.0 mm 0.00 in0.0 mm 0.00 in0.0 mm
11:34 AM 72.1°F22.3°C -5537.2°C - 7.0 mph NE11.3 kmh NE 11.2 mph18.0 kmh 24.98 in845.9 mb 0.00 in0.0 mm 0.00 in0.0 mm 0.00 in0.0 mm
11:39 AM 72.1°F22.3°C -5537.2°C - 7.0 mph ENE11.3 kmh ENE 14.8 mph23.8 kmh 24.98 in845.9 mb 0.00 in0.0 mm 0.00 in0.0 mm 0.00 in0.0 mm
11:44 AM 71.8°F22.1°C -5537.2°C - 8.0 mph NE12.9 kmh NE 14.8 mph23.8 kmh 24.98 in845.9 mb 0.00 in0.0 mm 0.00 in0.0 mm 0.00 in0.0 mm
11:49 AM 71.4°F21.9°C -5537.2°C - 7.0 mph NE11.3 kmh NE 13.0 mph20.9 kmh 24.98 in845.9 mb 0.00 in0.0 mm 0.00 in0.0 mm 0.00 in0.0 mm
11:54 AM 71.8°F22.1°C -5537.2°C - 7.0 mph ENE11.3 kmh ENE 19.5 mph31.4 kmh 24.98 in845.9 mb 0.00 in0.0 mm 0.00 in0.0 mm 0.00 in0.0 mm
11:59 AM 71.1°F21.7°C -5537.2°C - 7.0 mph NE11.3 kmh NE 15.9 mph25.6 kmh 24.98 in845.9 mb 0.00 in0.0 mm 0.00 in0.0 mm 0.00 in0.0 mm
12:04 PM 71.2°F21.8°C -5537.2°C - 7.0 mph NE11.3 kmh NE 12.1 mph19.5 kmh 24.98 in845.9 mb 0.00 in0.0 mm 0.00 in0.0 mm 0.00 in0.0 mm
12:09 PM 70.3°F21.3°C -5537.2°C - 7.0 mph E11.3 kmh E 13.0 mph20.9 kmh 24.98 in845.9 mb 0.00 in0.0 mm 0.00 in0.0 mm 0.00 in0.0 mm
12:14 PM 69.6°F20.9°C -5537.2°C - 7.0 mph NE11.3 kmh NE 13.4 mph21.6 kmh 24.98 in845.9 mb 0.00 in0.0 mm 0.00 in0.0 mm 0.00 in0.0 mm
12:19 PM 70.0°F21.1°C -5537.2°C - 8.0 mph NE12.9 kmh NE 16.3 mph26.2 kmh 24.98 in845.9 mb 0.00 in0.0 mm 0.00 in0.0 mm 0.00 in0.0 mm
12:24 PM 71.1°F21.7°C -5537.2°C - 8.0 mph ENE12.9 kmh ENE 14.8 mph23.8 kmh 24.98 in845.9 mb 0.00 in0.0 mm 0.00 in0.0 mm 0.00 in0.0 mm
12:29 PM 70.9°F21.6°C -5537.2°C - 11.0 mph ENE17.7 kmh ENE 21.9 mph35.2 kmh 24.98 in845.9 mb 0.00 in0.0 mm 0.00 in0.0 mm 0.00 in0.0 mm
12:35 PM 70.7°F21.5°C -5537.2°C - 13.0 mph E20.9 kmh E 20.1 mph32.3 kmh 24.98 in845.9 mb 0.00 in0.0 mm 0.00 in0.0 mm 0.00 in0.0 mm
12:40 PM 71.4°F21.9°C -5537.2°C - 12.0 mph E19.3 kmh E 15.9 mph25.6 kmh 24.98 in845.9 mb 0.00 in0.0 mm 0.00 in0.0 mm 0.00 in0.0 mm
12:45 PM 71.6°F22.0°C -5537.2°C - 10.0 mph ENE16.1 kmh ENE 16.3 mph26.2 kmh 24.98 in845.9 mb 0.00 in0.0 mm 0.00 in0.0 mm 0.00 in0.0 mm
12:50 PM 71.4°F21.9°C -5537.2°C - 10.0 mph ENE16.1 kmh ENE 15.2 mph24.5 kmh 24.98 in845.9 mb 0.00 in0.0 mm 0.00 in0.0 mm 0.00 in0.0 mm
12:55 PM 72.3°F22.4°C -5537.2°C - 10.0 mph ENE16.1 kmh ENE 18.6 mph29.9 kmh 24.98 in845.9 mb 0.00 in0.0 mm 0.00 in0.0 mm 0.00 in0.0 mm
01:00 PM 71.6°F22.0°C -5537.2°C - 11.0 mph ENE17.7 kmh ENE 23.3 mph37.5 kmh 24.98 in845.9 mb 0.00 in0.0 mm 0.00 in0.0 mm 0.00 in0.0 mm
01:05 PM 72.0°F22.2°C -5537.2°C - 12.0 mph ENE19.3 kmh ENE 19.5 mph31.4 kmh 24.95 in844.9 mb 0.00 in0.0 mm 0.00 in0.0 mm 0.00 in0.0 mm
01:10 PM 71.2°F21.8°C -5537.2°C - 11.0 mph ENE17.7 kmh ENE 22.8 mph36.7 kmh 24.95 in844.9 mb 0.00 in0.0 mm 0.00 in0.0 mm 0.00 in0.0 mm
01:15 PM 72.3°F22.4°C -5537.2°C - 10.0 mph ENE16.1 kmh ENE 16.3 mph26.2 kmh 24.95 in844.9 mb 0.00 in0.0 mm 0.00 in0.0 mm 0.00 in0.0 mm
01:20 PM 72.7°F22.6°C -5537.2°C - 10.0 mph NE16.1 kmh NE 17.2 mph27.7 kmh 24.95 in844.9 mb 0.00 in0.0 mm 0.00 in0.0 mm 0.00 in0.0 mm
01:25 PM 72.1°F22.3°C -5537.2°C - 10.0 mph NE16.1 kmh NE 15.9 mph25.6 kmh 24.95 in844.9 mb 0.00 in0.0 mm 0.00 in0.0 mm 0.00 in0.0 mm
01:30 PM 71.8°F22.1°C -5537.2°C - 11.0 mph ENE17.7 kmh ENE 18.6 mph29.9 kmh 24.95 in844.9 mb 0.00 in0.0 mm 0.00 in0.0 mm 0.00 in0.0 mm
01:35 PM 72.3°F22.4°C -5537.2°C - 11.0 mph NE17.7 kmh NE 17.7 mph28.5 kmh 24.95 in844.9 mb 0.00 in0.0 mm 0.00 in0.0 mm 0.00 in0.0 mm
01:40 PM 72.5°F22.5°C -5537.2°C - 9.0 mph NE14.5 kmh NE 14.8 mph23.8 kmh 24.95 in844.9 mb 0.00 in0.0 mm 0.00 in0.0 mm 0.00 in0.0 mm
01:45 PM 71.4°F21.9°C -5537.2°C - 10.0 mph ENE16.1 kmh ENE 23.7 mph38.1 kmh 24.95 in844.9 mb 0.00 in0.0 mm 0.00 in0.0 mm 0.00 in0.0 mm
01:50 PM 70.7°F21.5°C -5537.2°C - 12.0 mph NE19.3 kmh NE 19.0 mph30.6 kmh 24.95 in844.9 mb 0.00 in0.0 mm 0.00 in0.0 mm 0.00 in0.0 mm
01:55 PM 70.7°F21.5°C -5537.2°C - 10.0 mph NE16.1 kmh NE 15.2 mph24.5 kmh 24.95 in844.9 mb 0.00 in0.0 mm 0.00 in0.0 mm 0.00 in0.0 mm
02:00 PM 72.0°F22.2°C -5537.2°C - 9.0 mph NE14.5 kmh NE 15.9 mph25.6 kmh 24.95 in844.9 mb 0.00 in0.0 mm 0.00 in0.0 mm 0.00 in0.0 mm
02:05 PM 71.4°F21.9°C -5537.2°C - 9.0 mph NE14.5 kmh NE 17.2 mph27.7 kmh 24.92 in843.9 mb 0.00 in0.0 mm 0.00 in0.0 mm 0.00 in0.0 mm
02:10 PM 70.9°F21.6°C -5537.2°C - 10.0 mph NE16.1 kmh NE 22.4 mph36.0 kmh 24.92 in843.9 mb 0.00 in0.0 mm 0.00 in0.0 mm 0.00 in0.0 mm
02:15 PM 72.1°F22.3°C -5537.2°C - 10.0 mph NE16.1 kmh NE 17.7 mph28.5 kmh 24.92 in843.9 mb 0.00 in0.0 mm 0.00 in0.0 mm 0.00 in0.0 mm
02:20 PM 72.0°F22.2°C -5537.2°C - 9.0 mph NE14.5 kmh NE 15.9 mph25.6 kmh 24.92 in843.9 mb 0.00 in0.0 mm 0.00 in0.0 mm 0.00 in0.0 mm
02:25 PM 72.9°F22.7°C -5537.2°C - 10.0 mph NE16.1 kmh NE 18.6 mph29.9 kmh 24.92 in843.9 mb 0.00 in0.0 mm 0.00 in0.0 mm 0.00 in0.0 mm
02:30 PM 72.1°F22.3°C -5537.2°C - 9.0 mph NE14.5 kmh NE 14.8 mph23.8 kmh 24.92 in843.9 mb 0.00 in0.0 mm 0.00 in0.0 mm 0.00 in0.0 mm
02:35 PM 72.3°F22.4°C -5537.2°C - 8.0 mph NE12.9 kmh NE 18.1 mph29.1 kmh 24.92 in843.9 mb 0.00 in0.0 mm 0.00 in0.0 mm 0.00 in0.0 mm
02:40 PM 73.2°F22.9°C -5537.2°C - 9.0 mph NE14.5 kmh NE 15.9 mph25.6 kmh 24.92 in843.9 mb 0.00 in0.0 mm 0.00 in0.0 mm 0.00 in0.0 mm
02:45 PM 72.3°F22.4°C -5537.2°C - 10.0 mph NE16.1 kmh NE 15.4 mph24.8 kmh 24.92 in843.9 mb 0.00 in0.0 mm 0.00 in0.0 mm 0.00 in0.0 mm
02:50 PM 72.9°F22.7°C -5537.2°C - 9.0 mph NE14.5 kmh NE 17.2 mph27.7 kmh 24.89 in842.9 mb 0.00 in0.0 mm 0.00 in0.0 mm 0.00 in0.0 mm
02:55 PM 72.5°F22.5°C -5537.2°C - 9.0 mph NE14.5 kmh NE 19.0 mph30.6 kmh 24.89 in842.9 mb 0.00 in0.0 mm 0.00 in0.0 mm 0.00 in0.0 mm
03:00 PM 72.0°F22.2°C -5537.2°C - 10.0 mph NE16.1 kmh NE 19.9 mph32.0 kmh 24.89 in842.9 mb 0.00 in0.0 mm 0.00 in0.0 mm 0.00 in0.0 mm
03:05 PM 71.4°F21.9°C -5537.2°C - 12.0 mph NE19.3 kmh NE 25.7 mph41.4 kmh 24.89 in842.9 mb 0.00 in0.0 mm 0.00 in0.0 mm 0.00 in0.0 mm
03:10 PM 71.1°F21.7°C -5537.2°C - 12.0 mph NE19.3 kmh NE 18.6 mph29.9 kmh 24.89 in842.9 mb 0.00 in0.0 mm 0.00 in0.0 mm 0.00 in0.0 mm
03:15 PM 71.1°F21.7°C -5537.2°C - 12.0 mph NE19.3 kmh NE 20.6 mph33.2 kmh 24.89 in842.9 mb 0.00 in0.0 mm 0.00 in0.0 mm 0.00 in0.0 mm
03:20 PM 71.2°F21.8°C -5537.2°C - 11.0 mph NE17.7 kmh NE 16.8 mph27.0 kmh 24.89 in842.9 mb 0.00 in0.0 mm 0.00 in0.0 mm 0.00 in0.0 mm
03:25 PM 71.1°F21.7°C -5537.2°C - 11.0 mph ENE17.7 kmh ENE 18.6 mph29.9 kmh 24.89 in842.9 mb 0.00 in0.0 mm 0.00 in0.0 mm 0.00 in0.0 mm
03:30 PM 71.2°F21.8°C -5537.2°C - 11.0 mph ENE17.7 kmh ENE 17.2 mph27.7 kmh 24.89 in842.9 mb 0.00 in0.0 mm 0.00 in0.0 mm 0.00 in0.0 mm
03:35 PM 70.9°F21.6°C -5537.2°C - 11.0 mph ENE17.7 kmh ENE 19.5 mph31.4 kmh 24.89 in842.9 mb 0.00 in0.0 mm 0.00 in0.0 mm 0.00 in0.0 mm
03:40 PM 70.5°F21.4°C -5537.2°C - 12.0 mph ENE19.3 kmh ENE 19.0 mph30.6 kmh 24.89 in842.9 mb 0.00 in0.0 mm 0.00 in0.0 mm 0.00 in0.0 mm
03:45 PM 70.7°F21.5°C -5537.2°C - 12.0 mph NE19.3 kmh NE 22.4 mph36.0 kmh 24.89 in842.9 mb 0.00 in0.0 mm 0.00 in0.0 mm 0.00 in0.0 mm
03:50 PM 70.9°F21.6°C -5537.2°C - 12.0 mph NE19.3 kmh NE 17.2 mph27.7 kmh 24.89 in842.9 mb 0.00 in0.0 mm 0.00 in0.0 mm 0.00 in0.0 mm
03:55 PM 70.9°F21.6°C -5537.2°C - 11.0 mph NE17.7 kmh NE 18.1 mph29.1 kmh 24.89 in842.9 mb 0.00 in0.0 mm 0.00 in0.0 mm 0.00 in0.0 mm
04:00 PM 70.9°F21.6°C -5537.2°C - 8.0 mph NE12.9 kmh NE 11.0 mph17.7 kmh 24.89 in842.9 mb 0.00 in0.0 mm 0.00 in0.0 mm 0.00 in0.0 mm
04:05 PM 70.7°F21.5°C -5537.2°C - 7.0 mph ENE11.3 kmh ENE 13.4 mph21.6 kmh 24.89 in842.9 mb 0.00 in0.0 mm 0.00 in0.0 mm 0.00 in0.0 mm
04:10 PM 70.7°F21.5°C -5537.2°C - 7.0 mph ENE11.3 kmh ENE 12.1 mph19.5 kmh 24.89 in842.9 mb 0.00 in0.0 mm 0.00 in0.0 mm 0.00 in0.0 mm
04:15 PM 70.2°F21.2°C -5537.2°C - 6.0 mph NE9.7 kmh NE 11.0 mph17.7 kmh 24.89 in842.9 mb 0.00 in0.0 mm 0.00 in0.0 mm 0.00 in0.0 mm
04:20 PM 70.3°F21.3°C -5537.2°C - 7.0 mph NE11.3 kmh NE 16.8 mph27.0 kmh 24.89 in842.9 mb 0.00 in0.0 mm 0.00 in0.0 mm 0.00 in0.0 mm
04:25 PM 69.6°F20.9°C -5537.2°C - 9.0 mph NE14.5 kmh NE 21.9 mph35.2 kmh 24.89 in842.9 mb 0.00 in0.0 mm 0.00 in0.0 mm 0.00 in0.0 mm
04:30 PM 69.1°F20.6°C -5537.2°C - 12.0 mph NE19.3 kmh NE 21.0 mph33.8 kmh 24.89 in842.9 mb 0.00 in0.0 mm 0.00 in0.0 mm 0.00 in0.0 mm
04:35 PM 69.6°F20.9°C -5537.2°C - 10.0 mph NE16.1 kmh NE 14.3 mph23.0 kmh 24.89 in842.9 mb 0.00 in0.0 mm 0.00 in0.0 mm 0.00 in0.0 mm
04:40 PM 69.6°F20.9°C -5537.2°C - 7.0 mph NE11.3 kmh NE 13.9 mph22.4 kmh 24.89 in842.9 mb 0.00 in0.0 mm 0.00 in0.0 mm 0.00 in0.0 mm
04:45 PM 69.8°F21.0°C -5537.2°C - 8.0 mph ENE12.9 kmh ENE 15.2 mph24.5 kmh 24.89 in842.9 mb 0.00 in0.0 mm 0.00 in0.0 mm 0.00 in0.0 mm
04:50 PM 70.0°F21.1°C -5537.2°C - 8.0 mph NE12.9 kmh NE 13.4 mph21.6 kmh 24.89 in842.9 mb 0.00 in0.0 mm 0.00 in0.0 mm 0.00 in0.0 mm
04:55 PM 69.6°F20.9°C -5537.2°C - 8.0 mph NE12.9 kmh NE 13.4 mph21.6 kmh 24.89 in842.9 mb 0.00 in0.0 mm 0.00 in0.0 mm 0.00 in0.0 mm
05:00 PM 70.0°F21.1°C -5537.2°C - 8.0 mph NE12.9 kmh NE 12.1 mph19.5 kmh 24.89 in842.9 mb 0.00 in0.0 mm 0.00 in0.0 mm 0.00 in0.0 mm
05:05 PM 69.8°F21.0°C -5537.2°C - 9.0 mph ENE14.5 kmh ENE 19.0 mph30.6 kmh 24.89 in842.9 mb 0.00 in0.0 mm 0.00 in0.0 mm 0.00 in0.0 mm
05:10 PM 69.4°F20.8°C -5537.2°C - 9.0 mph ENE14.5 kmh ENE 15.2 mph24.5 kmh 24.89 in842.9 mb 0.00 in0.0 mm 0.00 in0.0 mm 0.00 in0.0 mm
05:15 PM 69.3°F20.7°C -5537.2°C - 7.0 mph ENE11.3 kmh ENE 9.6 mph15.4 kmh 24.89 in842.9 mb 0.00 in0.0 mm 0.00 in0.0 mm 0.00 in0.0 mm
05:20 PM 69.3°F20.7°C -5537.2°C - 6.0 mph NE9.7 kmh NE 14.8 mph23.8 kmh 24.86 in841.9 mb 0.00 in0.0 mm 0.00 in0.0 mm 0.00 in0.0 mm
05:25 PM 69.1°F20.6°C -5537.2°C - 8.0 mph ENE12.9 kmh ENE 14.8 mph23.8 kmh 24.86 in841.9 mb 0.00 in0.0 mm 0.00 in0.0 mm 0.00 in0.0 mm
05:30 PM 69.1°F20.6°C -5537.2°C - 7.0 mph ENE11.3 kmh ENE 11.0 mph17.7 kmh 24.86 in841.9 mb 0.00 in0.0 mm 0.00 in0.0 mm 0.00 in0.0 mm
05:35 PM 69.1°F20.6°C -5537.2°C - 7.0 mph NE11.3 kmh NE 14.8 mph23.8 kmh 24.89 in842.9 mb 0.00 in0.0 mm 0.00 in0.0 mm 0.00 in0.0 mm
05:40 PM 69.1°F20.6°C -5537.2°C - 7.0 mph NE11.3 kmh NE 11.2 mph18.0 kmh 24.89 in842.9 mb 0.00 in0.0 mm 0.00 in0.0 mm 0.00 in0.0 mm
05:45 PM 69.1°F20.6°C -5537.2°C - 8.0 mph NE12.9 kmh NE 15.4 mph24.8 kmh 24.89 in842.9 mb 0.00 in0.0 mm 0.00 in0.0 mm 0.00 in0.0 mm
05:50 PM 68.9°F20.5°C -5537.2°C - 9.0 mph NE14.5 kmh NE 15.9 mph25.6 kmh 24.89 in842.9 mb 0.00 in0.0 mm 0.00 in0.0 mm 0.00 in0.0 mm
05:55 PM 68.5°F20.3°C -5537.2°C - 10.0 mph NE16.1 kmh NE 22.4 mph36.0 kmh 24.89 in842.9 mb 0.00 in0.0 mm 0.00 in0.0 mm 0.00 in0.0 mm
06:00 PM 68.2°F20.1°C -5537.2°C - 12.0 mph NE19.3 kmh NE 33.8 mph54.4 kmh 24.89 in842.9 mb 0.00 in0.0 mm 0.00 in0.0 mm 0.00 in0.0 mm
06:05 PM 67.6°F19.8°C -5537.2°C - 13.0 mph NE20.9 kmh NE 30.0 mph48.3 kmh 24.89 in842.9 mb 0.00 in0.0 mm 0.00 in0.0 mm 0.00 in0.0 mm
06:10 PM 67.5°F19.7°C -5537.2°C - 10.0 mph NE16.1 kmh NE 15.2 mph24.5 kmh 24.89 in842.9 mb 0.00 in0.0 mm 0.00 in0.0 mm 0.00 in0.0 mm
06:16 PM 67.3°F19.6°C -5537.2°C - 7.0 mph NNE11.3 kmh NNE 14.8 mph23.8 kmh 24.89 in842.9 mb 0.00 in0.0 mm 0.00 in0.0 mm 0.00 in0.0 mm
06:21 PM 67.5°F19.7°C -5537.2°C - 7.0 mph NNE11.3 kmh NNE 13.4 mph21.6 kmh 24.86 in841.9 mb 0.00 in0.0 mm 0.00 in0.0 mm 0.00 in0.0 mm
06:26 PM 67.8°F19.9°C -5537.2°C - 9.0 mph NNE14.5 kmh NNE 22.4 mph36.0 kmh 24.86 in841.9 mb 0.00 in0.0 mm 0.00 in0.0 mm 0.00 in0.0 mm
06:31 PM 68.0°F20.0°C -5537.2°C - 11.0 mph NE17.7 kmh NE 16.3 mph26.2 kmh 24.86 in841.9 mb 0.00 in0.0 mm 0.00 in0.0 mm 0.00 in0.0 mm
06:36 PM 67.8°F19.9°C -5537.2°C - 8.0 mph NE12.9 kmh NE 10.5 mph16.9 kmh 24.86 in841.9 mb 0.00 in0.0 mm 0.00 in0.0 mm 0.00 in0.0 mm
06:41 PM 67.8°F19.9°C -5537.2°C - 5.0 mph ENE8.0 kmh ENE 10.5 mph16.9 kmh 24.86 in841.9 mb 0.00 in0.0 mm 0.00 in0.0 mm 0.00 in0.0 mm
06:46 PM 67.8°F19.9°C -5537.2°C - 6.0 mph ENE9.7 kmh ENE 13.0 mph20.9 kmh 24.86 in841.9 mb 0.00 in0.0 mm 0.00 in0.0 mm 0.00 in0.0 mm
06:51 PM 68.0°F20.0°C -5537.2°C - 7.0 mph E11.3 kmh E 11.6 mph18.7 kmh 24.86 in841.9 mb 0.00 in0.0 mm 0.00 in0.0 mm 0.00 in0.0 mm
06:56 PM 68.2°F20.1°C -5537.2°C - 6.0 mph E9.7 kmh E 14.3 mph23.0 kmh 24.86 in841.9 mb 0.00 in0.0 mm 0.00 in0.0 mm 0.00 in0.0 mm
07:01 PM 68.0°F20.0°C -5537.2°C - 6.0 mph ENE9.7 kmh ENE 14.8 mph23.8 kmh 24.86 in841.9 mb 0.00 in0.0 mm 0.00 in0.0 mm 0.00 in0.0 mm
07:06 PM 68.0°F20.0°C -5537.2°C - 6.0 mph NE9.7 kmh NE 12.1 mph19.5 kmh 24.86 in841.9 mb 0.00 in0.0 mm 0.00 in0.0 mm 0.00 in0.0 mm
07:11 PM 68.0°F20.0°C -5537.2°C - 6.0 mph NE9.7 kmh NE 11.6 mph18.7 kmh 24.86 in841.9 mb 0.00 in0.0 mm 0.00 in0.0 mm 0.00 in0.0 mm
07:16 PM 67.8°F19.9°C -5537.2°C - 6.0 mph NE9.7 kmh NE 12.1 mph19.5 kmh 24.86 in841.9 mb 0.00 in0.0 mm 0.00 in0.0 mm 0.00 in0.0 mm
07:21 PM 67.5°F19.7°C -5537.2°C - 5.0 mph NNE8.0 kmh NNE 7.4 mph11.9 kmh 24.83 in840.8 mb 0.00 in0.0 mm 0.00 in0.0 mm 0.00 in0.0 mm
07:26 PM 66.7°F19.3°C -5537.2°C - 3.0 mph NE4.8 kmh NE 5.4 mph8.7 kmh 24.83 in840.8 mb 0.00 in0.0 mm 0.00 in0.0 mm 0.00 in0.0 mm
07:31 PM 66.7°F19.3°C -5537.2°C - 4.0 mph NE6.4 kmh NE 9.2 mph14.8 kmh 24.83 in840.8 mb 0.00 in0.0 mm 0.00 in0.0 mm 0.00 in0.0 mm
07:36 PM 67.3°F19.6°C -5537.2°C - 5.0 mph NE8.0 kmh NE 9.6 mph15.4 kmh 24.83 in840.8 mb 0.00 in0.0 mm 0.00 in0.0 mm 0.00 in0.0 mm
07:41 PM 67.1°F19.5°C -5537.2°C - 5.0 mph NE8.0 kmh NE 9.2 mph14.8 kmh 24.83 in840.8 mb 0.00 in0.0 mm 0.00 in0.0 mm 0.00 in0.0 mm
07:46 PM 66.7°F19.3°C -5537.2°C - 4.0 mph NE6.4 kmh NE 7.4 mph11.9 kmh 24.83 in840.8 mb 0.00 in0.0 mm 0.00 in0.0 mm 0.00 in0.0 mm
07:51 PM 66.4°F19.1°C -5537.2°C - 5.0 mph ENE8.0 kmh ENE 8.3 mph13.4 kmh 24.83 in840.8 mb 0.00 in0.0 mm 0.00 in0.0 mm 0.00 in0.0 mm
07:56 PM 65.8°F18.8°C -5537.2°C - 5.0 mph ENE8.0 kmh ENE 5.8 mph9.3 kmh 24.83 in840.8 mb 0.00 in0.0 mm 0.00 in0.0 mm 0.00 in0.0 mm
08:01 PM 65.8°F18.8°C -5537.2°C - 4.0 mph ENE6.4 kmh ENE 8.3 mph13.4 kmh 24.83 in840.8 mb 0.00 in0.0 mm 0.00 in0.0 mm 0.00 in0.0 mm
08:06 PM 65.8°F18.8°C -5537.2°C - 5.0 mph ENE8.0 kmh ENE 8.3 mph13.4 kmh 24.83 in840.8 mb 0.00 in0.0 mm 0.00 in0.0 mm 0.00 in0.0 mm
08:11 PM 65.5°F18.6°C -5537.2°C - 5.0 mph ENE8.0 kmh ENE 6.9 mph11.1 kmh 24.83 in840.8 mb 0.00 in0.0 mm 0.00 in0.0 mm 0.00 in0.0 mm
08:16 PM 65.1°F18.4°C -5537.2°C - 5.0 mph E8.0 kmh E 7.4 mph11.9 kmh 24.83 in840.8 mb 0.00 in0.0 mm 0.00 in0.0 mm 0.00 in0.0 mm
08:21 PM 65.1°F18.4°C -5537.2°C - 6.0 mph E9.7 kmh E 10.1 mph16.3 kmh 24.83 in840.8 mb 0.00 in0.0 mm 0.00 in0.0 mm 0.00 in0.0 mm
08:26 PM 65.1°F18.4°C -5537.2°C - 6.0 mph E9.7 kmh E 9.6 mph15.4 kmh 24.83 in840.8 mb 0.00 in0.0 mm 0.00 in0.0 mm 0.00 in0.0 mm
08:31 PM 64.8°F18.2°C -5537.2°C - 5.0 mph E8.0 kmh E 6.9 mph11.1 kmh 24.83 in840.8 mb 0.00 in0.0 mm 0.00 in0.0 mm 0.00 in0.0 mm
08:36 PM 63.5°F17.5°C -5537.2°C - 4.0 mph NE6.4 kmh NE 5.8 mph9.3 kmh 24.83 in840.8 mb 0.00 in0.0 mm 0.00 in0.0 mm 0.00 in0.0 mm
08:41 PM 63.9°F17.7°C -5537.2°C - 5.0 mph NNE8.0 kmh NNE 7.8 mph12.6 kmh 24.83 in840.8 mb 0.00 in0.0 mm 0.00 in0.0 mm 0.00 in0.0 mm
08:46 PM 63.5°F17.5°C -5537.2°C - 5.0 mph 8.0 kmh 6.3 mph10.1 kmh 24.83 in840.8 mb 0.00 in0.0 mm 0.00 in0.0 mm 0.00 in0.0 mm
08:51 PM 63.0°F17.2°C -5537.2°C - 4.0 mph NNE6.4 kmh NNE 5.8 mph9.3 kmh 24.83 in840.8 mb 0.00 in0.0 mm 0.00 in0.0 mm 0.00 in0.0 mm
08:56 PM 62.2°F16.8°C -5537.2°C - 3.0 mph NE4.8 kmh NE 4.9 mph7.9 kmh 24.83 in840.8 mb 0.00 in0.0 mm 0.00 in0.0 mm 0.00 in0.0 mm
09:01 PM 61.3°F16.3°C -5537.2°C - 3.0 mph NE4.8 kmh NE 4.5 mph7.2 kmh 24.83 in840.8 mb 0.00 in0.0 mm 0.00 in0.0 mm 0.00 in0.0 mm
09:06 PM 61.2°F16.2°C -5537.2°C - 4.0 mph ENE6.4 kmh ENE 7.8 mph12.6 kmh 24.83 in840.8 mb 0.00 in0.0 mm 0.00 in0.0 mm 0.00 in0.0 mm
09:11 PM 61.3°F16.3°C -5537.2°C - 5.0 mph ENE8.0 kmh ENE 7.4 mph11.9 kmh 24.83 in840.8 mb 0.00 in0.0 mm 0.00 in0.0 mm 0.00 in0.0 mm
09:16 PM 61.5°F16.4°C -5537.2°C - 6.0 mph ENE9.7 kmh ENE 7.4 mph11.9 kmh 24.83 in840.8 mb 0.00 in0.0 mm 0.00 in0.0 mm 0.00 in0.0 mm
09:21 PM 61.7°F16.5°C -5537.2°C - 6.0 mph ENE9.7 kmh ENE 8.7 mph14.0 kmh 24.83 in840.8 mb 0.00 in0.0 mm 0.00 in0.0 mm 0.00 in0.0 mm
09:26 PM 61.7°F16.5°C -5537.2°C - 6.0 mph ENE9.7 kmh ENE 9.2 mph14.8 kmh 24.83 in840.8 mb 0.00 in0.0 mm 0.00 in0.0 mm 0.00 in0.0 mm
09:31 PM 61.5°F16.4°C -5537.2°C - 6.0 mph ENE9.7 kmh ENE 8.7 mph14.0 kmh 24.83 in840.8 mb 0.00 in0.0 mm 0.00 in0.0 mm 0.00 in0.0 mm
09:36 PM 61.5°F16.4°C -5537.2°C - 6.0 mph ENE9.7 kmh ENE 9.2 mph14.8 kmh 24.80 in839.8 mb 0.00 in0.0 mm 0.00 in0.0 mm 0.00 in0.0 mm
09:41 PM 61.2°F16.2°C -5537.2°C - 5.0 mph NE8.0 kmh NE 7.4 mph11.9 kmh 24.80 in839.8 mb 0.00 in0.0 mm 0.00 in0.0 mm 0.00 in0.0 mm
09:46 PM 61.3°F16.3°C -5537.2°C - 4.0 mph NE6.4 kmh NE 6.3 mph10.1 kmh 24.80 in839.8 mb 0.00 in0.0 mm 0.00 in0.0 mm 0.00 in0.0 mm
09:51 PM 61.2°F16.2°C -5537.2°C - 3.0 mph NE4.8 kmh NE 6.3 mph10.1 kmh 24.80 in839.8 mb 0.00 in0.0 mm 0.00 in0.0 mm 0.00 in0.0 mm
09:56 PM 61.5°F16.4°C -5537.2°C - 3.0 mph NE4.8 kmh NE 6.7 mph10.8 kmh 24.80 in839.8 mb 0.00 in0.0 mm 0.00 in0.0 mm 0.00 in0.0 mm
10:01 PM 61.5°F16.4°C -5537.2°C - 4.0 mph NE6.4 kmh NE 9.2 mph14.8 kmh 24.80 in839.8 mb 0.00 in0.0 mm 0.00 in0.0 mm 0.00 in0.0 mm
10:06 PM 61.9°F16.6°C -5537.2°C - 6.0 mph NE9.7 kmh NE 11.0 mph17.7 kmh 24.80 in839.8 mb 0.00 in0.0 mm 0.00 in0.0 mm 0.00 in0.0 mm
10:11 PM 61.9°F16.6°C -5537.2°C - 7.0 mph ENE11.3 kmh ENE 9.6 mph15.4 kmh 24.80 in839.8 mb 0.00 in0.0 mm 0.00 in0.0 mm 0.00 in0.0 mm
10:16 PM 62.1°F16.7°C -5537.2°C - 6.0 mph NE9.7 kmh NE 7.4 mph11.9 kmh 24.80 in839.8 mb 0.00 in0.0 mm 0.00 in0.0 mm 0.00 in0.0 mm
10:21 PM 61.9°F16.6°C -5537.2°C - 5.0 mph NE8.0 kmh NE 6.9 mph11.1 kmh 24.80 in839.8 mb 0.00 in0.0 mm 0.00 in0.0 mm 0.00 in0.0 mm
10:26 PM 62.2°F16.8°C -5537.2°C - 5.0 mph NE8.0 kmh NE 8.7 mph14.0 kmh 24.80 in839.8 mb 0.00 in0.0 mm 0.00 in0.0 mm 0.00 in0.0 mm
10:31 PM 62.2°F16.8°C -5537.2°C - 6.0 mph NE9.7 kmh NE 10.5 mph16.9 kmh 24.80 in839.8 mb 0.00 in0.0 mm 0.00 in0.0 mm 0.00 in0.0 mm
10:36 PM 62.2°F16.8°C -5537.2°C - 5.0 mph NE8.0 kmh NE 7.8 mph12.6 kmh 24.80 in839.8 mb 0.00 in0.0 mm 0.00 in0.0 mm 0.00 in0.0 mm
10:41 PM 62.4°F16.9°C -5537.2°C - 5.0 mph NE8.0 kmh NE 8.3 mph13.4 kmh 24.80 in839.8 mb 0.00 in0.0 mm 0.00 in0.0 mm 0.00 in0.0 mm
10:46 PM 62.6°F17.0°C -5537.2°C - 6.0 mph NE9.7 kmh NE 8.7 mph14.0 kmh 24.80 in839.8 mb 0.00 in0.0 mm 0.00 in0.0 mm 0.00 in0.0 mm
10:51 PM 62.8°F17.1°C -5537.2°C - 6.0 mph ENE9.7 kmh ENE 9.2 mph14.8 kmh 24.80 in839.8 mb 0.00 in0.0 mm 0.00 in0.0 mm 0.00 in0.0 mm
10:56 PM 63.0°F17.2°C -5537.2°C - 6.0 mph ENE9.7 kmh ENE 9.2 mph14.8 kmh 24.80 in839.8 mb 0.00 in0.0 mm 0.00 in0.0 mm 0.00 in0.0 mm
11:01 PM 62.8°F17.1°C -5537.2°C - 7.0 mph ENE11.3 kmh ENE 9.6 mph15.4 kmh 24.80 in839.8 mb 0.00 in0.0 mm 0.00 in0.0 mm 0.00 in0.0 mm
11:06 PM 62.6°F17.0°C -5537.2°C - 7.0 mph ENE11.3 kmh ENE 10.5 mph16.9 kmh 24.80 in839.8 mb 0.00 in0.0 mm 0.00 in0.0 mm 0.00 in0.0 mm
11:11 PM 62.4°F16.9°C -5537.2°C - 6.0 mph ENE9.7 kmh ENE 9.2 mph14.8 kmh 24.80 in839.8 mb 0.00 in0.0 mm 0.00 in0.0 mm 0.00 in0.0 mm
11:16 PM 62.2°F16.8°C -5537.2°C - 5.0 mph E8.0 kmh E 9.6 mph15.4 kmh 24.80 in839.8 mb 0.00 in0.0 mm 0.00 in0.0 mm 0.00 in0.0 mm
11:21 PM 62.6°F17.0°C -5537.2°C - 6.0 mph E9.7 kmh E 10.1 mph16.3 kmh 24.80 in839.8 mb 0.00 in0.0 mm 0.00 in0.0 mm 0.00 in0.0 mm
11:26 PM 62.4°F16.9°C -5537.2°C - 8.0 mph ESE12.9 kmh ESE 18.6 mph29.9 kmh 24.80 in839.8 mb 0.00 in0.0 mm 0.00 in0.0 mm 0.00 in0.0 mm
11:31 PM 61.9°F16.6°C -5537.2°C - 10.0 mph ESE16.1 kmh ESE 17.2 mph27.7 kmh 24.80 in839.8 mb 0.00 in0.0 mm 0.00 in0.0 mm 0.00 in0.0 mm
11:36 PM 61.0°F16.1°C -5537.2°C - 12.0 mph ESE19.3 kmh ESE 22.8 mph36.7 kmh 24.80 in839.8 mb 0.00 in0.0 mm 0.00 in0.0 mm 0.00 in0.0 mm
11:41 PM 60.6°F15.9°C -5537.2°C - 14.0 mph E22.5 kmh E 23.3 mph37.5 kmh 24.80 in839.8 mb 0.00 in0.0 mm 0.00 in0.0 mm 0.00 in0.0 mm
11:46 PM 60.3°F15.7°C 5.5°F-14.7°C 11% 15.0 mph E24.1 kmh E 27.1 mph43.6 kmh 24.80 in839.8 mb 0.00 in0.0 mm 0.00 in0.0 mm 0.00 in0.0 mm
11:51 PM 60.1°F15.6°C 10.8°F-11.8°C 14% 14.0 mph E22.5 kmh E 21.9 mph35.2 kmh 24.80 in839.8 mb 0.00 in0.0 mm 0.00 in0.0 mm 0.00 in0.0 mm
11:56 PM 60.1°F15.6°C 10.8°F-11.8°C 14% 14.0 mph E22.5 kmh E 20.1 mph32.3 kmh 24.80 in839.8 mb 0.00 in0.0 mm 0.00 in0.0 mm 0.00 in0.0 mm